createdAt,value
2017-11-14T00:02:21.579Z,9.40
2017-11-14T00:04:49.112Z,9.15
2017-11-14T00:07:17.009Z,9.30
2017-11-14T00:09:44.930Z,7.68
2017-11-14T00:12:12.453Z,8.63
2017-11-14T00:14:39.999Z,8.90
2017-11-14T00:17:07.525Z,9.93
2017-11-14T00:19:35.082Z,9.45
2017-11-14T00:22:02.606Z,8.75
2017-11-14T00:24:30.178Z,9.75
2017-11-14T00:26:57.707Z,10.38
2017-11-14T00:29:25.223Z,9.82
2017-11-14T00:31:52.767Z,8.75
2017-11-14T00:34:20.302Z,8.95
2017-11-14T00:36:47.857Z,10.20
2017-11-14T00:39:15.764Z,10.55
2017-11-14T00:41:43.305Z,9.05
2017-11-14T00:44:10.839Z,10.40
2017-11-14T00:46:38.417Z,9.70
2017-11-14T00:49:05.944Z,11.75
2017-11-14T00:51:33.481Z,10.07
2017-11-14T00:54:01.009Z,11.93
2017-11-14T00:56:28.518Z,11.30
2017-11-14T00:58:56.060Z,11.50
2017-11-14T01:01:23.567Z,12.32
2017-11-14T01:03:51.090Z,11.15
2017-11-14T01:06:19.013Z,11.93
2017-11-14T01:08:46.586Z,14.32
2017-11-14T01:11:14.094Z,12.93
2017-11-14T01:13:41.623Z,13.60
2017-11-14T01:16:09.155Z,14.87
2017-11-14T01:18:36.671Z,15.00
2017-11-14T01:21:04.216Z,15.35
2017-11-14T01:23:31.742Z,14.18
2017-11-14T01:25:59.296Z,17.48
2017-11-14T01:28:26.827Z,16.67
2017-11-14T01:30:54.426Z,16.62
2017-11-14T01:33:21.933Z,16.02
2017-11-14T01:35:49.504Z,13.75
2017-11-14T01:38:17.441Z,14.93
2017-11-14T01:40:44.953Z,13.15
2017-11-14T01:43:12.519Z,16.02
2017-11-14T01:45:40.034Z,12.98
2017-11-14T01:48:07.542Z,15.13
2017-11-14T01:50:35.077Z,14.25
2017-11-14T01:53:02.584Z,14.25
2017-11-14T01:55:30.132Z,16.00
2017-11-14T01:57:57.669Z,13.05
2017-11-14T02:00:37.055Z,14.40
2017-11-14T02:03:04.583Z,14.68
2017-11-14T02:05:32.126Z,14.35
2017-11-14T02:08:00.050Z,14.15
2017-11-14T02:10:27.572Z,13.85
2017-11-14T02:12:55.105Z,13.95
2017-11-14T02:15:22.623Z,12.35
2017-11-14T02:17:50.170Z,12.88
2017-11-14T02:20:18.073Z,12.32
2017-11-14T02:22:45.617Z,13.85
2017-11-14T02:25:13.140Z,13.77
2017-11-14T02:27:40.675Z,12.73
2017-11-14T02:30:08.209Z,13.35
2017-11-14T02:32:35.716Z,12.73
2017-11-14T02:35:03.271Z,10.93
2017-11-14T02:37:30.809Z,12.32
2017-11-14T02:39:58.351Z,11.40
2017-11-14T02:42:25.889Z,12.90
2017-11-14T02:44:53.432Z,11.05
2017-11-14T02:47:20.942Z,12.00
2017-11-14T02:49:48.518Z,10.77
2017-11-14T02:52:16.042Z,10.65
2017-11-14T02:54:43.557Z,12.90
2017-11-14T02:57:11.127Z,10.07
2017-11-14T02:59:39.049Z,10.70
2017-11-14T03:02:06.583Z,13.15
2017-11-14T03:04:34.107Z,15.48
2017-11-14T03:07:01.656Z,14.93
2017-11-14T03:09:29.169Z,16.05
2017-11-14T03:11:57.108Z,14.70
2017-11-14T03:14:24.624Z,13.70
2017-11-14T03:16:52.215Z,14.87
2017-11-14T03:19:19.741Z,14.27
2017-11-14T03:21:47.263Z,14.27
2017-11-14T03:24:14.811Z,15.13
2017-11-14T03:26:42.345Z,17.55
2017-11-14T03:29:09.871Z,16.65
2017-11-14T03:31:37.413Z,17.00
2017-11-14T03:34:04.952Z,16.27
2017-11-14T03:36:32.464Z,15.00
2017-11-14T03:38:59.989Z,16.30
2017-11-14T03:41:27.518Z,15.43
2017-11-14T03:43:55.077Z,16.08
2017-11-14T03:46:22.593Z,15.52
2017-11-14T03:48:50.096Z,14.55
2017-11-14T03:51:17.637Z,14.93
2017-11-14T03:53:45.564Z,15.52
2017-11-14T03:56:13.093Z,15.32
2017-11-14T03:58:40.652Z,15.30
2017-11-14T04:01:08.191Z,18.08
2017-11-14T04:03:35.711Z,15.30
2017-11-14T04:06:03.279Z,19.37
2017-11-14T04:08:30.811Z,16.35
2017-11-14T04:10:58.322Z,18.55
2017-11-14T04:13:25.871Z,18.98
2017-11-14T04:15:53.406Z,20.30
2017-11-14T04:18:20.945Z,19.62
2017-11-14T04:20:48.468Z,19.35
2017-11-14T04:23:16.405Z,19.05
2017-11-14T04:25:43.930Z,17.80
2017-11-14T04:28:11.473Z,19.30
2017-11-14T04:30:38.984Z,16.05
2017-11-14T04:33:06.501Z,14.68
2017-11-14T04:35:34.051Z,14.07
2017-11-14T04:38:01.576Z,14.45
2017-11-14T04:40:29.115Z,15.38
2017-11-14T04:42:56.644Z,14.90
2017-11-14T04:45:24.601Z,16.20
2017-11-14T04:47:52.146Z,15.55
2017-11-14T04:50:19.704Z,16.92
2017-11-14T04:52:47.645Z,17.27
2017-11-14T04:55:15.170Z,14.38
2017-11-14T04:57:42.707Z,14.23
2017-11-14T05:00:10.236Z,14.68
2017-11-14T05:02:37.777Z,14.00
2017-11-14T05:05:05.298Z,14.38
2017-11-14T05:07:32.822Z,14.70
2017-11-14T05:10:00.729Z,14.32
2017-11-14T05:12:28.252Z,12.98
2017-11-14T05:14:55.796Z,12.57
2017-11-14T05:17:23.323Z,13.05
2017-11-14T05:19:50.879Z,15.15
2017-11-14T05:22:18.397Z,13.93
2017-11-14T05:24:45.955Z,16.48
2017-11-14T05:27:13.460Z,15.32
2017-11-14T05:29:41.031Z,15.05
2017-11-14T05:32:08.536Z,15.75
2017-11-14T05:34:36.060Z,16.77
2017-11-14T05:37:03.593Z,19.90
2017-11-14T05:39:31.169Z,18.77
2017-11-14T05:41:58.711Z,23.12
2017-11-14T05:44:26.229Z,17.10
2017-11-14T05:46:53.758Z,16.80
2017-11-14T05:49:21.283Z,15.70
2017-11-14T05:51:48.828Z,14.20
2017-11-14T05:54:16.338Z,15.43
2017-11-14T05:56:43.844Z,15.85
2017-11-14T05:59:11.397Z,14.27
2017-11-14T06:01:38.931Z,18.05
2017-11-14T06:04:06.864Z,18.10
2017-11-14T06:06:34.392Z,17.12
2017-11-14T06:09:01.926Z,18.23
2017-11-14T06:11:29.450Z,31.17
2017-11-14T06:13:56.980Z,21.23
2017-11-14T06:16:24.538Z,25.92
2017-11-14T06:18:52.051Z,21.45
2017-11-14T06:21:19.598Z,20.08
2017-11-14T06:23:47.141Z,20.05
2017-11-14T06:26:14.683Z,20.45
2017-11-14T06:28:42.200Z,26.85
2017-11-14T06:31:09.729Z,21.05
2017-11-14T06:33:37.252Z,28.85
2017-11-14T06:36:04.795Z,21.08
2017-11-14T06:38:32.375Z,20.08
2017-11-14T06:40:59.920Z,19.92
2017-11-14T06:43:27.826Z,20.48
2017-11-14T06:45:55.803Z,22.10
2017-11-14T06:48:23.331Z,20.42
2017-11-14T06:50:50.862Z,20.75
2017-11-14T06:53:18.387Z,21.42
2017-11-14T06:55:45.931Z,20.00
2017-11-14T06:58:13.463Z,39.55
2017-11-14T07:00:41.031Z,19.33
2017-11-14T07:03:08.541Z,20.55
2017-11-14T07:05:36.092Z,22.95
2017-11-14T07:08:03.630Z,21.05
2017-11-14T07:10:31.304Z,22.23
2017-11-14T07:12:58.837Z,23.12
2017-11-14T07:15:26.380Z,23.05
2017-11-14T07:17:53.890Z,23.50
2017-11-14T07:20:21.477Z,23.50
2017-11-14T07:22:49.003Z,23.12
2017-11-14T07:25:16.596Z,25.83
2017-11-14T07:27:44.502Z,25.50
2017-11-14T07:30:12.057Z,23.60
2017-11-14T07:32:39.584Z,22.92
2017-11-14T07:35:07.119Z,23.23
2017-11-14T07:37:34.631Z,22.75
2017-11-14T07:40:02.171Z,21.70
2017-11-14T07:42:29.693Z,22.87
2017-11-14T07:44:57.241Z,21.42
2017-11-14T07:47:24.772Z,23.30
2017-11-14T07:49:52.300Z,24.10
2017-11-14T07:52:19.841Z,21.87
2017-11-14T07:54:47.367Z,21.52
2017-11-14T07:57:15.290Z,20.88
2017-11-14T07:59:42.809Z,22.60
2017-11-14T08:02:10.352Z,27.40
2017-11-14T08:04:37.878Z,23.77
2017-11-14T08:07:05.408Z,25.75
2017-11-14T08:09:33.310Z,24.65
2017-11-14T08:12:00.860Z,24.45
2017-11-14T08:14:28.368Z,26.70
2017-11-14T08:16:55.912Z,24.10
2017-11-14T08:19:23.454Z,24.80
2017-11-14T08:21:51.377Z,25.75
2017-11-14T08:24:18.913Z,22.30
2017-11-14T08:26:46.541Z,22.70
2017-11-14T08:29:14.086Z,21.20
2017-11-14T08:31:41.614Z,21.48
2017-11-14T08:34:09.117Z,21.10
2017-11-14T08:36:37.043Z,20.30
2017-11-14T08:39:04.553Z,20.35
2017-11-14T08:41:32.104Z,19.55
2017-11-14T08:43:59.612Z,20.23
2017-11-14T08:46:27.179Z,19.23
2017-11-14T08:48:54.711Z,17.45
2017-11-14T08:51:22.252Z,16.70
2017-11-14T08:53:49.778Z,16.90
2017-11-14T08:56:17.332Z,17.02
2017-11-14T08:58:44.863Z,15.30
2017-11-14T09:01:12.430Z,15.60
2017-11-14T09:03:39.948Z,14.10
2017-11-14T09:06:07.863Z,15.18
2017-11-14T09:08:35.398Z,14.60
2017-11-14T09:11:02.935Z,12.88
2017-11-14T09:13:30.460Z,14.38
2017-11-14T09:15:58.389Z,14.32
2017-11-14T09:18:26.030Z,15.27
2017-11-14T09:20:53.591Z,14.75
2017-11-14T09:23:21.140Z,15.50
2017-11-14T09:25:48.672Z,12.75
2017-11-14T09:28:16.204Z,13.75
2017-11-14T09:30:43.714Z,14.73
2017-11-14T09:33:11.238Z,13.73
2017-11-14T09:35:39.137Z,12.88
2017-11-14T09:38:06.664Z,12.98
2017-11-14T09:40:34.184Z,10.85
2017-11-14T09:43:01.718Z,13.90
2017-11-14T09:45:29.243Z,10.95
2017-11-14T09:47:56.796Z,9.52
2017-11-14T09:50:24.308Z,8.40
2017-11-14T09:52:51.854Z,8.23
2017-11-14T09:55:19.797Z,8.38
2017-11-14T09:57:47.343Z,8.20
2017-11-14T10:00:14.880Z,8.40
2017-11-14T10:02:42.423Z,8.10
2017-11-14T10:05:09.941Z,7.15
2017-11-14T10:07:37.466Z,7.90
2017-11-14T10:10:04.987Z,7.75
2017-11-14T10:12:32.531Z,7.25
2017-11-14T10:15:00.051Z,7.12
2017-11-14T10:17:27.607Z,6.68
2017-11-14T10:19:55.533Z,7.05
2017-11-14T10:22:23.123Z,7.62
2017-11-14T10:24:50.655Z,6.70
2017-11-14T10:27:18.168Z,7.90
2017-11-14T10:29:46.089Z,8.35
2017-11-14T10:32:13.608Z,8.23
2017-11-14T10:34:41.151Z,7.47
2017-11-14T10:37:09.072Z,7.53
2017-11-14T10:39:36.619Z,7.15
2017-11-14T10:42:04.531Z,8.13
2017-11-14T10:44:32.072Z,7.35
2017-11-14T10:46:59.593Z,7.40
2017-11-14T10:49:27.534Z,6.70
2017-11-14T10:51:55.053Z,7.87
2017-11-14T10:54:22.585Z,8.38
2017-11-14T10:56:50.124Z,7.18
2017-11-14T10:59:17.662Z,7.10
2017-11-14T11:01:45.195Z,7.50
2017-11-14T11:04:13.326Z,8.13
2017-11-14T11:06:40.924Z,8.88
2017-11-14T11:09:08.490Z,7.97
2017-11-14T11:11:36.016Z,6.95
2017-11-14T11:14:03.599Z,8.80
2017-11-14T11:16:33.701Z,6.60
2017-11-14T11:19:01.638Z,8.00
2017-11-14T11:21:29.146Z,7.53
2017-11-14T11:23:56.678Z,7.05
2017-11-14T11:26:24.583Z,6.25
2017-11-14T11:28:52.149Z,6.55
2017-11-14T11:31:19.670Z,6.10
2017-11-14T11:33:47.207Z,4.93
2017-11-14T11:36:14.731Z,5.40
2017-11-14T11:38:42.270Z,6.12
2017-11-14T11:41:09.792Z,5.45
2017-11-14T11:43:37.328Z,5.05
2017-11-14T11:46:04.851Z,6.05
2017-11-14T11:48:32.383Z,6.10
2017-11-14T11:50:59.922Z,6.37
2017-11-14T11:53:27.860Z,4.90
2017-11-14T11:55:55.424Z,5.95
2017-11-14T11:58:22.932Z,5.25
2017-11-14T12:00:51.761Z,6.45
2017-11-14T12:03:19.276Z,5.57
2017-11-14T12:05:46.808Z,5.30
2017-11-14T12:08:14.333Z,5.15
2017-11-14T12:10:41.883Z,5.30
2017-11-14T12:13:09.404Z,5.07
2017-11-14T12:15:36.950Z,5.45
2017-11-14T12:18:04.513Z,5.00
2017-11-14T12:20:32.036Z,4.53
2017-11-14T12:22:59.560Z,5.25
2017-11-14T12:25:27.109Z,4.87
2017-11-14T12:27:54.659Z,4.57
2017-11-14T12:30:22.197Z,5.30
2017-11-14T12:32:49.715Z,4.90
2017-11-14T12:35:17.241Z,4.75
2017-11-14T12:37:44.766Z,5.60
2017-11-14T12:40:12.318Z,4.43
2017-11-14T12:42:39.833Z,4.80
2017-11-14T12:45:07.382Z,5.37
2017-11-14T12:47:34.914Z,4.25
2017-11-14T12:50:02.455Z,5.43
2017-11-14T12:52:30.362Z,4.60
2017-11-14T12:54:57.890Z,4.65
2017-11-14T12:57:25.416Z,4.47
2017-11-14T12:59:53.346Z,4.75
2017-11-14T13:02:20.860Z,3.97
2017-11-14T13:04:48.399Z,4.82
2017-11-14T13:07:15.913Z,3.80
2017-11-14T13:09:43.479Z,4.50
2017-11-14T13:12:10.997Z,4.50
2017-11-14T13:14:38.511Z,3.00
2017-11-14T13:17:06.055Z,2.83
2017-11-14T13:19:33.575Z,2.60
2017-11-14T13:22:01.113Z,2.72
2017-11-14T13:24:28.629Z,3.33
2017-11-14T13:26:56.156Z,2.75
2017-11-14T13:29:23.683Z,2.40
2017-11-14T13:31:51.209Z,2.95
2017-11-14T13:34:19.123Z,2.55
2017-11-14T13:36:46.706Z,2.05
2017-11-14T13:39:14.232Z,2.37
2017-11-14T13:41:42.350Z,2.25
2017-11-14T13:44:09.878Z,2.37
2017-11-14T13:46:37.424Z,2.20
2017-11-14T13:49:04.939Z,2.20
2017-11-14T13:51:32.879Z,2.35
2017-11-14T13:54:00.381Z,2.00
2017-11-14T13:56:27.905Z,1.65
2017-11-14T13:58:55.817Z,2.40
2017-11-14T14:01:23.356Z,4.32
2017-11-14T14:03:50.873Z,2.65
2017-11-14T14:06:18.417Z,3.10
2017-11-14T14:08:45.944Z,1.90
2017-11-14T14:11:13.490Z,2.75
2017-11-14T14:13:41.016Z,3.70
2017-11-14T14:16:08.964Z,2.50
2017-11-14T14:18:36.473Z,2.40
2017-11-14T14:21:04.006Z,2.95
2017-11-14T14:23:31.556Z,2.20
2017-11-14T14:25:59.086Z,2.95
2017-11-14T14:28:26.586Z,2.72
2017-11-14T14:30:54.118Z,2.85
2017-11-14T14:33:21.635Z,3.30
2017-11-14T14:35:49.153Z,3.70
2017-11-14T14:38:16.674Z,3.08
2017-11-14T14:40:44.216Z,3.15
2017-11-14T14:43:11.762Z,2.30
2017-11-14T14:45:39.290Z,3.28
2017-11-14T14:48:06.827Z,4.00
2017-11-14T14:50:34.365Z,3.10
2017-11-14T14:53:02.013Z,3.55
2017-11-14T14:55:29.551Z,2.70
2017-11-14T14:57:57.101Z,2.65
2017-11-14T15:00:24.606Z,2.40
2017-11-14T15:02:52.521Z,2.85
2017-11-14T15:05:20.051Z,2.97
2017-11-14T15:07:47.584Z,3.10
2017-11-14T15:10:15.489Z,3.40
2017-11-14T15:12:43.406Z,2.90
2017-11-14T15:15:10.927Z,3.00
2017-11-14T15:17:38.468Z,3.75
2017-11-14T15:20:05.989Z,3.15
2017-11-14T15:22:33.515Z,3.62
2017-11-14T15:25:01.054Z,3.55
2017-11-14T15:27:29.008Z,4.00
2017-11-14T15:29:56.545Z,3.58
2017-11-14T15:32:24.485Z,3.15
2017-11-14T15:34:52.008Z,3.03
2017-11-14T15:37:19.555Z,3.00
2017-11-14T15:39:47.074Z,3.00
2017-11-14T15:42:14.603Z,4.65
2017-11-14T15:44:42.511Z,3.22
2017-11-14T15:47:10.060Z,4.55
2017-11-14T15:49:37.593Z,3.47
2017-11-14T15:52:05.135Z,3.30
2017-11-14T15:54:32.644Z,4.00
2017-11-14T15:57:00.204Z,3.45
2017-11-14T15:59:27.744Z,4.00
2017-11-14T16:01:55.648Z,3.65
2017-11-14T16:04:23.563Z,3.40
2017-11-14T16:06:51.090Z,3.83
2017-11-14T16:09:18.625Z,4.30
2017-11-14T16:11:46.131Z,3.17
2017-11-14T16:14:14.049Z,2.80
2017-11-14T16:16:41.552Z,3.60
2017-11-14T16:19:09.078Z,2.78
2017-11-14T16:21:36.632Z,3.80
2017-11-14T16:24:04.176Z,3.45
2017-11-14T16:26:31.685Z,3.00
2017-11-14T16:28:59.220Z,3.05
2017-11-14T16:31:26.761Z,3.25
2017-11-14T16:33:54.325Z,4.10
2017-11-14T16:36:21.845Z,4.00
2017-11-14T16:38:49.405Z,3.50
2017-11-14T16:41:16.908Z,3.53
2017-11-14T16:43:44.432Z,3.67
2017-11-14T16:46:11.947Z,3.30
2017-11-14T16:48:39.568Z,3.40
2017-11-14T16:51:07.112Z,2.95
2017-11-14T16:53:34.669Z,4.03
2017-11-14T16:56:02.585Z,3.37
2017-11-14T16:58:30.115Z,4.18
2017-11-14T17:00:57.639Z,3.60
2017-11-14T17:03:25.336Z,2.95
2017-11-14T17:05:52.849Z,4.20
2017-11-14T17:08:20.380Z,3.72
2017-11-14T17:10:47.902Z,4.47
2017-11-14T17:13:18.170Z,6.50
2017-11-14T17:15:45.702Z,4.25
2017-11-14T17:18:13.229Z,5.03
2017-11-14T17:20:40.732Z,4.00
2017-11-14T17:23:08.308Z,3.50
2017-11-14T17:25:35.825Z,3.75
2017-11-14T17:28:03.347Z,5.12
2017-11-14T17:30:31.275Z,4.55
2017-11-14T17:32:58.803Z,3.92
2017-11-14T17:35:26.332Z,3.80
2017-11-14T17:37:53.841Z,3.90
2017-11-14T17:40:21.379Z,3.70
2017-11-14T17:42:48.884Z,3.35
2017-11-14T17:45:16.406Z,3.35
2017-11-14T17:47:43.917Z,4.37
2017-11-14T17:50:11.468Z,3.83
2017-11-14T17:52:38.980Z,4.10
2017-11-14T17:55:06.505Z,3.97
2017-11-14T17:57:34.054Z,4.75
2017-11-14T18:00:01.600Z,3.78
2017-11-14T18:02:29.109Z,5.32
2017-11-14T18:04:56.637Z,4.53
2017-11-14T18:07:24.205Z,5.15
2017-11-14T18:09:52.145Z,4.68
2017-11-14T18:12:19.658Z,5.30
2017-11-14T18:14:47.232Z,6.53
2017-11-14T18:17:14.775Z,6.03
2017-11-14T18:19:42.301Z,7.85
2017-11-14T18:22:09.834Z,7.80
2017-11-14T18:24:37.369Z,9.30
2017-11-14T18:27:04.903Z,7.15
2017-11-14T18:29:32.443Z,7.53
2017-11-14T18:31:59.984Z,10.00
2017-11-14T18:34:27.530Z,7.35
2017-11-14T18:36:55.458Z,12.60
2017-11-14T18:39:23.004Z,10.98
2017-11-14T18:41:50.517Z,8.10
2017-11-14T18:44:18.441Z,7.43
2017-11-14T18:46:46.149Z,7.50
2017-11-14T18:49:13.703Z,8.75
2017-11-14T18:51:41.252Z,7.87
2017-11-14T18:54:08.798Z,8.40
2017-11-14T18:56:36.351Z,7.65
2017-11-14T18:59:03.864Z,8.10
2017-11-14T19:01:31.399Z,7.75
2017-11-14T19:03:59.316Z,8.60
2017-11-14T19:06:26.859Z,7.65
2017-11-14T19:08:54.366Z,7.87
2017-11-14T19:11:21.916Z,8.23
2017-11-14T19:13:49.446Z,8.25
2017-11-14T19:16:16.991Z,8.50
2017-11-14T19:18:44.515Z,10.45
2017-11-14T19:21:12.070Z,10.25
2017-11-14T19:23:39.604Z,9.95
2017-11-14T19:26:07.142Z,9.50
2017-11-14T19:28:34.665Z,9.13
2017-11-14T19:31:02.207Z,10.48
2017-11-14T19:33:29.727Z,10.63
2017-11-14T19:35:57.272Z,11.20
2017-11-14T19:38:25.192Z,10.57
2017-11-14T19:40:52.734Z,10.35
2017-11-14T19:43:20.241Z,10.00
2017-11-14T19:45:48.168Z,9.40
2017-11-14T19:48:15.677Z,11.95
2017-11-14T19:50:44.070Z,12.10
2017-11-14T19:53:12.747Z,10.48
2017-11-14T19:55:40.298Z,12.10
2017-11-14T19:58:07.817Z,10.07
2017-11-14T20:00:35.363Z,9.15
2017-11-14T20:03:02.884Z,10.57
2017-11-14T20:05:30.810Z,10.50
2017-11-14T20:07:58.727Z,9.80
2017-11-14T20:10:26.336Z,10.82
2017-11-14T20:12:53.863Z,11.43
2017-11-14T20:15:21.373Z,10.68
2017-11-14T20:17:48.921Z,11.45
2017-11-14T20:20:16.443Z,12.05
2017-11-14T20:22:43.987Z,10.20
2017-11-14T20:25:11.528Z,11.15
2017-11-14T20:27:39.077Z,9.95
2017-11-14T20:30:06.609Z,11.75
2017-11-14T20:32:34.143Z,13.55
2017-11-14T20:35:01.671Z,13.15
2017-11-14T20:37:29.624Z,14.40
2017-11-14T20:39:57.151Z,14.40
2017-11-14T20:42:24.687Z,13.73
2017-11-14T20:44:52.208Z,15.07
2017-11-14T20:47:19.746Z,14.52
2017-11-14T20:49:47.650Z,16.65
2017-11-14T20:52:15.602Z,16.20
2017-11-14T20:54:43.162Z,17.12
2017-11-14T20:57:10.711Z,16.62
2017-11-14T20:59:38.251Z,18.12
2017-11-14T21:02:05.784Z,17.98
2017-11-14T21:04:33.294Z,20.42
2017-11-14T21:07:00.822Z,19.37
2017-11-14T21:09:28.342Z,18.60
2017-11-14T21:11:55.900Z,18.75
2017-11-14T21:14:23.435Z,18.00
2017-11-14T21:16:50.975Z,18.45
2017-11-14T21:19:18.507Z,20.67
2017-11-14T21:21:46.455Z,18.45
2017-11-14T21:24:13.975Z,19.25
2017-11-14T21:26:41.524Z,19.92
2017-11-14T21:29:09.062Z,19.55
2017-11-14T21:31:36.598Z,19.40
2017-11-14T21:34:04.108Z,19.20
2017-11-14T21:36:31.624Z,18.65
2017-11-14T21:38:59.154Z,20.70
2017-11-14T21:41:27.078Z,21.98
2017-11-14T21:43:54.622Z,19.87
2017-11-14T21:46:22.153Z,20.60
2017-11-14T21:48:49.695Z,20.83
2017-11-14T21:51:17.222Z,19.95
2017-11-14T21:53:44.769Z,23.12
2017-11-14T21:56:12.336Z,20.50
2017-11-14T21:58:39.894Z,21.60
2017-11-14T22:01:07.427Z,22.00
2017-11-14T22:03:34.976Z,23.80
2017-11-14T22:06:02.528Z,21.62
2017-11-14T22:08:30.042Z,20.77
2017-11-14T22:10:57.592Z,23.80
2017-11-14T22:13:25.521Z,22.35
2017-11-14T22:15:53.059Z,23.02
2017-11-14T22:18:20.569Z,23.12
2017-11-14T22:20:48.094Z,22.30
2017-11-14T22:23:15.633Z,22.27
2017-11-14T22:25:43.538Z,23.12
2017-11-14T22:28:11.457Z,21.87
2017-11-14T22:30:38.984Z,22.20
2017-11-14T22:33:06.548Z,21.65
2017-11-14T22:35:34.070Z,24.70
2017-11-14T22:38:01.598Z,22.35
2017-11-14T22:40:29.151Z,21.48
2017-11-14T22:42:56.682Z,23.87
2017-11-14T22:45:29.974Z,22.05
2017-11-14T22:47:57.892Z,22.08
2017-11-14T22:50:25.421Z,23.08
2017-11-14T22:52:52.935Z,22.20
2017-11-14T22:55:20.872Z,22.30
2017-11-14T22:57:48.394Z,24.60
2017-11-14T23:00:26.023Z,22.30
2017-11-14T23:02:53.576Z,22.30
2017-11-14T23:05:21.107Z,21.33
2017-11-14T23:07:48.665Z,21.40
2017-11-14T23:10:16.170Z,20.12
2017-11-14T23:12:43.700Z,22.20
